createdAt,value
2022-08-30T00:01:22.408Z,1.80
2022-08-30T00:03:49.312Z,1.90
2022-08-30T00:06:17.842Z,1.58
2022-08-30T00:08:45.168Z,1.73
2022-08-30T00:11:14.349Z,1.65
2022-08-30T00:13:43.271Z,1.70
2022-08-30T00:16:11.089Z,1.92
2022-08-30T00:18:38.567Z,2.17
2022-08-30T00:21:06.211Z,1.60
2022-08-30T00:23:33.125Z,1.92
2022-08-30T00:26:00.404Z,1.70
2022-08-30T00:28:27.148Z,1.95
2022-08-30T00:30:54.479Z,1.70
2022-08-30T00:33:21.900Z,1.98
2022-08-30T00:35:49.253Z,1.92
2022-08-30T00:38:16.845Z,1.90
2022-08-30T00:40:44.799Z,1.73
2022-08-30T00:43:20.146Z,1.83
2022-08-30T00:45:47.407Z,1.77
2022-08-30T00:48:14.295Z,1.92
2022-08-30T00:50:54.041Z,1.90
2022-08-30T00:53:33.838Z,1.90
2022-08-30T00:56:01.469Z,1.50
2022-08-30T00:58:38.373Z,1.55
2022-08-30T01:01:06.834Z,2.20
2022-08-30T01:03:34.870Z,1.65
2022-08-30T01:06:03.237Z,1.63
2022-08-30T01:08:29.939Z,1.95
2022-08-30T01:10:57.633Z,1.90
2022-08-30T01:13:26.557Z,1.88
2022-08-30T01:15:54.364Z,2.17
2022-08-30T01:18:23.883Z,2.20
2022-08-30T01:21:28.935Z,1.92
2022-08-30T01:23:58.931Z,2.08
2022-08-30T01:26:28.942Z,2.30
2022-08-30T01:29:00.307Z,2.05
2022-08-30T01:31:28.209Z,1.95
2022-08-30T01:33:54.954Z,1.95
2022-08-30T01:36:22.009Z,1.88
2022-08-30T01:38:50.670Z,1.65
2022-08-30T01:41:35.166Z,1.83
2022-08-30T01:44:06.178Z,2.03
2022-08-30T01:46:36.055Z,1.55
2022-08-30T01:49:06.386Z,1.73
2022-08-30T01:51:33.296Z,2.22
2022-08-30T01:54:00.500Z,1.80
2022-08-30T01:56:29.142Z,1.70
2022-08-30T01:59:01.835Z,1.88
2022-08-30T02:01:32.440Z,1.52
2022-08-30T02:03:59.511Z,1.52
2022-08-30T02:06:26.641Z,1.58
2022-08-30T02:08:53.366Z,1.50
2022-08-30T02:11:20.093Z,1.80
2022-08-30T02:13:47.356Z,1.65
2022-08-30T02:16:17.335Z,1.83
2022-08-30T02:18:44.762Z,2.00
2022-08-30T02:21:12.798Z,1.80
2022-08-30T02:23:39.469Z,2.10
2022-08-30T02:26:07.459Z,1.60
2022-08-30T02:28:34.537Z,1.80
2022-08-30T02:31:10.508Z,1.60
2022-08-30T02:33:38.041Z,1.40
2022-08-30T02:36:08.327Z,1.80
2022-08-30T02:38:35.521Z,1.85
2022-08-30T02:41:02.453Z,1.70
2022-08-30T02:43:29.209Z,1.67
2022-08-30T02:45:56.070Z,1.58
2022-08-30T02:48:22.965Z,1.70
2022-08-30T02:50:52.017Z,1.77
2022-08-30T02:53:21.044Z,1.98
2022-08-30T02:55:48.702Z,1.52
2022-08-30T02:58:15.432Z,1.42
2022-08-30T03:00:42.854Z,1.80
2022-08-30T03:03:09.912Z,1.83
2022-08-30T03:05:39.584Z,1.70
2022-08-30T03:08:07.430Z,1.70
2022-08-30T03:10:34.541Z,1.70
2022-08-30T03:13:01.442Z,1.85
2022-08-30T03:15:28.142Z,2.00
2022-08-30T03:17:55.662Z,1.88
2022-08-30T03:20:24.034Z,1.70
2022-08-30T03:22:51.041Z,1.67
2022-08-30T03:25:20.497Z,1.77
2022-08-30T03:27:47.976Z,1.58
2022-08-30T03:30:14.973Z,1.63
2022-08-30T03:32:41.864Z,2.15
2022-08-30T03:35:10.168Z,1.70
2022-08-30T03:37:37.336Z,1.77
2022-08-30T03:40:09.322Z,2.00
2022-08-30T03:42:37.861Z,1.73
2022-08-30T03:45:07.733Z,1.92
2022-08-30T03:47:34.766Z,1.83
2022-08-30T03:50:01.491Z,1.80
2022-08-30T03:52:28.521Z,1.75
2022-08-30T03:54:55.211Z,2.00
2022-08-30T03:57:24.495Z,1.70
2022-08-30T03:59:51.670Z,1.42
2022-08-30T04:02:18.533Z,1.60
2022-08-30T04:04:45.263Z,1.80
2022-08-30T04:07:11.967Z,1.58
2022-08-30T04:09:38.687Z,1.60
2022-08-30T04:12:05.631Z,1.55
2022-08-30T04:14:32.273Z,1.20
2022-08-30T04:16:59.717Z,1.48
2022-08-30T04:19:26.394Z,2.08
2022-08-30T04:21:53.114Z,1.60
2022-08-30T04:24:19.821Z,1.10
2022-08-30T04:26:46.455Z,1.45
2022-08-30T04:29:16.548Z,1.25
2022-08-30T04:31:44.400Z,1.60
2022-08-30T04:34:12.872Z,1.40
2022-08-30T04:36:40.271Z,1.27
2022-08-30T04:39:07.564Z,1.50
2022-08-30T04:41:36.566Z,1.52
2022-08-30T04:44:03.622Z,1.17
2022-08-30T04:46:30.846Z,1.25
2022-08-30T04:48:57.721Z,1.38
2022-08-30T04:51:24.424Z,1.40
2022-08-30T04:53:51.207Z,1.58
2022-08-30T04:56:22.300Z,1.50
2022-08-30T04:58:50.799Z,1.63
2022-08-30T05:01:26.351Z,1.27
2022-08-30T05:03:54.617Z,1.40
2022-08-30T05:06:23.290Z,1.65
2022-08-30T05:08:50.064Z,1.23
2022-08-30T05:11:17.577Z,1.50
2022-08-30T05:13:44.859Z,1.25
2022-08-30T05:16:17.516Z,1.80
2022-08-30T05:18:49.054Z,1.20
2022-08-30T05:21:26.733Z,1.50
2022-08-30T05:23:55.958Z,1.58
2022-08-30T05:26:26.398Z,1.55
2022-08-30T05:28:53.363Z,1.30
2022-08-30T05:31:23.156Z,1.55
2022-08-30T05:33:51.989Z,1.20
2022-08-30T05:36:20.666Z,1.60
2022-08-30T05:38:47.754Z,1.50
2022-08-30T05:41:14.832Z,1.70
2022-08-30T05:43:42.288Z,1.40
2022-08-30T05:46:12.814Z,1.40
2022-08-30T05:48:40.458Z,1.77
2022-08-30T05:51:14.772Z,1.58
2022-08-30T05:53:41.761Z,1.60
2022-08-30T05:56:11.483Z,1.45
2022-08-30T05:58:38.621Z,1.30
2022-08-30T06:01:06.340Z,1.40
2022-08-30T06:03:33.504Z,1.70
2022-08-30T06:06:00.856Z,1.30
2022-08-30T06:08:27.789Z,1.50
2022-08-30T06:10:54.553Z,1.50
2022-08-30T06:13:22.216Z,1.42
2022-08-30T06:15:49.525Z,1.35
2022-08-30T06:18:16.431Z,1.40
2022-08-30T06:20:44.528Z,1.27
2022-08-30T06:23:11.182Z,1.58
2022-08-30T06:25:41.410Z,1.50
2022-08-30T06:28:10.007Z,1.10
2022-08-30T06:30:39.037Z,1.20
2022-08-30T06:33:05.981Z,1.20
2022-08-30T06:35:38.108Z,1.50
2022-08-30T06:38:09.024Z,1.50
2022-08-30T06:40:36.753Z,1.20
2022-08-30T06:43:03.631Z,1.40
2022-08-30T06:45:31.028Z,1.50
2022-08-30T06:50:31.826Z,1.20
2022-08-30T06:53:04.423Z,1.17
2022-08-30T06:55:33.356Z,1.10
2022-08-30T06:58:01.226Z,1.30
2022-08-30T07:00:28.873Z,1.15
2022-08-30T07:02:55.659Z,1.20
2022-08-30T07:05:23.567Z,1.17
2022-08-30T07:07:53.226Z,1.30
2022-08-30T07:10:21.365Z,1.23
2022-08-30T07:12:48.800Z,1.05
2022-08-30T07:15:16.077Z,1.20
2022-08-30T07:18:01.347Z,0.88
2022-08-30T07:20:28.144Z,1.00
2022-08-30T07:23:07.855Z,0.80
2022-08-30T07:25:36.836Z,1.10
2022-08-30T07:28:05.437Z,0.82
2022-08-30T07:30:32.932Z,0.90
2022-08-30T07:32:59.650Z,0.88
2022-08-30T07:35:26.519Z,1.10
2022-08-30T07:37:53.254Z,0.90
2022-08-30T07:40:20.552Z,1.00
2022-08-30T07:42:47.273Z,0.90
2022-08-30T07:45:14.315Z,1.00
2022-08-30T07:47:41.450Z,0.90
2022-08-30T07:50:08.774Z,0.80
2022-08-30T07:52:35.470Z,0.77
2022-08-30T07:55:02.330Z,0.80
2022-08-30T07:57:31.501Z,0.80
2022-08-30T07:59:58.175Z,1.20
2022-08-30T08:02:25.114Z,0.70
2022-08-30T08:04:51.937Z,0.70
2022-08-30T08:07:19.044Z,0.80
2022-08-30T08:09:45.768Z,0.98
2022-08-30T08:12:12.609Z,1.10
2022-08-30T08:14:40.690Z,0.57
2022-08-30T08:17:08.126Z,0.60
2022-08-30T08:19:34.842Z,0.60
2022-08-30T08:22:20.157Z,0.90
2022-08-30T08:24:47.708Z,1.05
2022-08-30T08:27:14.371Z,0.50
2022-08-30T08:29:41.228Z,0.77
2022-08-30T08:32:07.953Z,0.65
2022-08-30T08:34:35.690Z,0.95
2022-08-30T08:37:02.487Z,0.70
2022-08-30T08:39:29.149Z,0.60
2022-08-30T08:42:07.850Z,0.60
2022-08-30T08:45:17.362Z,0.73
2022-08-30T08:48:04.332Z,0.70
2022-08-30T08:50:31.865Z,0.70
2022-08-30T08:53:44.431Z,0.77
2022-08-30T08:56:12.591Z,1.38
2022-08-30T08:58:43.964Z,1.20
2022-08-30T09:01:13.131Z,1.00
2022-08-30T09:03:40.164Z,0.80
2022-08-30T09:06:30.615Z,0.90
2022-08-30T09:08:57.262Z,1.00
2022-08-30T09:11:27.726Z,0.60
2022-08-30T09:13:55.017Z,0.60
2022-08-30T09:16:45.302Z,0.85
2022-08-30T09:19:12.596Z,0.60
2022-08-30T09:21:39.283Z,1.10
2022-08-30T09:24:08.599Z,0.70
2022-08-30T09:26:37.612Z,0.70
2022-08-30T09:29:05.891Z,0.68
2022-08-30T09:31:46.689Z,0.75
2022-08-30T09:34:18.749Z,0.77
2022-08-30T09:36:55.918Z,0.80
2022-08-30T09:39:41.268Z,0.47
2022-08-30T09:42:18.876Z,0.60
2022-08-30T09:44:45.625Z,0.75
2022-08-30T09:47:31.531Z,0.55
2022-08-30T09:50:04.532Z,0.80
2022-08-30T09:52:42.479Z,0.70
2022-08-30T09:55:37.738Z,0.70
2022-08-30T09:58:50.317Z,0.85
2022-08-30T10:01:24.695Z,0.80
2022-08-30T10:04:13.532Z,0.73
2022-08-30T10:06:55.270Z,0.60
2022-08-30T10:09:38.545Z,0.75
2022-08-30T10:12:20.745Z,0.77
2022-08-30T10:14:52.013Z,0.60
2022-08-30T10:17:46.287Z,0.90
2022-08-30T10:20:21.876Z,0.63
2022-08-30T10:23:04.982Z,0.70
2022-08-30T10:25:38.554Z,0.88
2022-08-30T10:28:14.445Z,0.65
2022-08-30T10:30:49.928Z,0.70
2022-08-30T10:33:28.373Z,0.77
2022-08-30T10:36:01.967Z,0.60
2022-08-30T10:38:35.386Z,0.88
2022-08-30T10:41:48.680Z,0.90
2022-08-30T10:44:26.254Z,0.93
2022-08-30T10:47:27.013Z,0.70
2022-08-30T10:50:16.451Z,0.65
2022-08-30T10:53:00.615Z,0.90
2022-08-30T10:55:34.051Z,1.38
2022-08-30T10:58:01.852Z,0.70
2022-08-30T11:00:50.900Z,0.80
2022-08-30T11:03:46.666Z,0.70
2022-08-30T11:06:45.032Z,0.70
2022-08-30T11:09:41.267Z,0.65
2022-08-30T11:12:29.826Z,0.90
2022-08-30T11:14:57.388Z,0.63
2022-08-30T11:17:44.040Z,1.15
2022-08-30T11:20:46.899Z,0.80
2022-08-30T11:23:19.379Z,0.82
2022-08-30T11:26:17.003Z,0.80
2022-08-30T11:28:47.219Z,1.10
2022-08-30T11:31:23.532Z,0.85
2022-08-30T11:33:51.824Z,0.88
2022-08-30T11:36:37.840Z,0.73
2022-08-30T11:39:50.272Z,0.82
2022-08-30T11:42:29.356Z,1.08
2022-08-30T11:45:25.361Z,0.80
2022-08-30T11:48:01.267Z,0.80
2022-08-30T11:50:56.018Z,0.90
2022-08-30T11:53:33.035Z,0.82
2022-08-30T11:56:18.284Z,1.00
2022-08-30T11:58:57.955Z,0.90
2022-08-30T12:01:50.612Z,0.95
2022-08-30T12:04:17.149Z,0.93
2022-08-30T12:07:05.440Z,1.00
2022-08-30T12:09:35.110Z,1.15
2022-08-30T12:12:10.792Z,1.00
2022-08-30T12:14:51.541Z,0.77
2022-08-30T12:17:43.030Z,0.85
2022-08-30T12:20:29.036Z,0.82
2022-08-30T12:22:56.625Z,0.85
2022-08-30T12:28:28.526Z,1.05
2022-08-30T12:30:55.291Z,0.90
2022-08-30T12:33:40.184Z,0.85
2022-08-30T12:36:13.256Z,0.80
2022-08-30T12:38:40.810Z,1.10
2022-08-30T12:41:07.939Z,0.77
2022-08-30T12:43:47.831Z,0.80
2022-08-30T12:46:19.001Z,0.80
2022-08-30T12:48:48.122Z,1.02
2022-08-30T12:51:39.137Z,1.38
2022-08-30T12:54:16.264Z,0.80
2022-08-30T12:56:56.050Z,1.08
2022-08-30T12:59:59.474Z,1.02
2022-08-30T13:02:47.052Z,1.17
2022-08-30T13:05:45.567Z,0.90
2022-08-30T13:08:36.744Z,0.82
2022-08-30T13:11:10.650Z,0.80
2022-08-30T13:13:53.094Z,0.98
2022-08-30T13:16:22.847Z,1.20
2022-08-30T13:19:14.587Z,0.82
2022-08-30T13:21:53.278Z,1.10
2022-08-30T13:24:24.820Z,1.02
2022-08-30T13:26:54.280Z,0.88
2022-08-30T13:29:25.296Z,0.80
2022-08-30T13:31:52.460Z,0.95
2022-08-30T13:34:22.230Z,0.88
2022-08-30T13:36:54.858Z,1.00
2022-08-30T13:39:21.908Z,1.10
2022-08-30T13:41:49.429Z,1.05
2022-08-30T13:44:16.405Z,1.02
2022-08-30T13:46:53.310Z,0.90
2022-08-30T13:52:22.484Z,0.70
2022-08-30T13:54:51.365Z,0.80
2022-08-30T14:00:12.579Z,0.75
2022-08-30T14:02:46.466Z,0.80
2022-08-30T14:05:37.479Z,1.10
2022-08-30T14:08:01.892Z,0.60
2022-08-30T14:10:31.215Z,1.02
2022-08-30T14:13:07.791Z,0.93
2022-08-30T14:15:38.939Z,0.95
2022-08-30T14:18:07.420Z,1.13
2022-08-30T14:20:35.407Z,1.00
2022-08-30T14:23:07.577Z,0.80
2022-08-30T14:25:37.539Z,0.93
2022-08-30T14:28:04.467Z,0.70
2022-08-30T14:30:31.769Z,1.00
2022-08-30T14:33:00.248Z,1.10
2022-08-30T14:35:26.893Z,0.95
2022-08-30T14:37:54.366Z,1.00
2022-08-30T14:40:21.648Z,0.65
2022-08-30T14:42:48.489Z,1.10
2022-08-30T14:45:15.433Z,0.90
2022-08-30T14:47:42.155Z,0.80
2022-08-30T14:50:09.042Z,0.80
2022-08-30T14:52:36.219Z,1.00
2022-08-30T14:55:08.509Z,0.73
2022-08-30T14:57:37.449Z,0.80
2022-08-30T15:00:09.568Z,1.00
2022-08-30T15:02:36.295Z,0.70
2022-08-30T15:05:03.354Z,0.75
2022-08-30T15:07:33.877Z,0.70
2022-08-30T15:10:00.537Z,0.80
2022-08-30T15:12:28.398Z,0.77
2022-08-30T15:14:55.900Z,0.98
2022-08-30T15:17:22.595Z,0.88
2022-08-30T15:19:49.412Z,0.60
2022-08-30T15:22:16.781Z,1.00
2022-08-30T15:24:44.125Z,0.90
2022-08-30T15:27:15.814Z,0.75
2022-08-30T15:29:42.545Z,0.98
2022-08-30T15:32:09.181Z,0.65
2022-08-30T15:34:36.097Z,0.70
2022-08-30T15:37:03.842Z,0.80
2022-08-30T15:39:31.267Z,0.75
2022-08-30T15:42:01.276Z,1.10
2022-08-30T15:44:31.931Z,0.98
2022-08-30T15:46:59.090Z,0.90
2022-08-30T15:49:25.842Z,0.98
2022-08-30T15:51:54.010Z,0.90
2022-08-30T15:54:23.361Z,0.80
2022-08-30T15:56:52.108Z,0.90
2022-08-30T15:59:19.244Z,0.60
2022-08-30T16:01:47.587Z,0.80
2022-08-30T16:04:17.089Z,0.75
2022-08-30T16:06:46.439Z,0.80
2022-08-30T16:09:13.715Z,0.80
2022-08-30T16:11:40.502Z,0.93
2022-08-30T16:14:08.416Z,0.80
2022-08-30T16:16:37.600Z,1.02
2022-08-30T16:19:05.186Z,0.80
2022-08-30T16:21:36.588Z,0.90
2022-08-30T16:24:05.160Z,1.00
2022-08-30T16:26:33.694Z,1.00
2022-08-30T16:29:00.933Z,0.90
2022-08-30T16:31:29.890Z,0.85
2022-08-30T16:33:57.377Z,0.98
2022-08-30T16:36:32.128Z,0.93
2022-08-30T16:38:59.593Z,0.77
2022-08-30T16:41:26.493Z,0.73
2022-08-30T16:43:54.253Z,0.50
2022-08-30T16:46:27.720Z,0.73
2022-08-30T16:48:57.256Z,0.77
2022-08-30T16:51:25.700Z,0.70
2022-08-30T16:53:55.792Z,0.85
2022-08-30T16:56:25.094Z,0.70
2022-08-30T16:59:00.704Z,0.75
2022-08-30T17:01:30.828Z,0.70
2022-08-30T17:03:58.008Z,0.90
2022-08-30T17:06:24.907Z,0.70
2022-08-30T17:08:52.599Z,0.80
2022-08-30T17:11:23.718Z,0.80
2022-08-30T17:13:50.871Z,0.80
2022-08-30T17:16:18.992Z,0.82
2022-08-30T17:18:50.079Z,0.70
2022-08-30T17:21:17.100Z,0.90
2022-08-30T17:23:44.882Z,0.85
2022-08-30T17:26:11.736Z,0.90
2022-08-30T17:28:40.832Z,0.88
2022-08-30T17:31:08.633Z,0.80
2022-08-30T17:33:38.951Z,0.70
2022-08-30T17:36:09.417Z,0.77
2022-08-30T17:38:36.072Z,0.80
2022-08-30T17:41:09.193Z,0.80
2022-08-30T17:43:37.376Z,0.73
2022-08-30T17:46:10.649Z,0.82
2022-08-30T17:48:39.023Z,0.80
2022-08-30T17:51:07.004Z,1.00
2022-08-30T17:53:34.715Z,0.70
2022-08-30T17:56:02.764Z,0.50
2022-08-30T17:58:29.572Z,1.08
2022-08-30T18:01:13.342Z,0.80
2022-08-30T18:03:41.907Z,0.73
2022-08-30T18:06:12.884Z,1.10
2022-08-30T18:08:39.763Z,0.70
2022-08-30T18:11:06.951Z,0.80
2022-08-30T18:13:33.675Z,1.05
2022-08-30T18:16:03.044Z,0.88
2022-08-30T18:18:31.087Z,0.80
2022-08-30T18:20:59.054Z,0.73
2022-08-30T18:23:27.178Z,0.80
2022-08-30T18:26:01.018Z,0.90
2022-08-30T18:28:29.466Z,0.65
2022-08-30T18:30:56.883Z,0.70
2022-08-30T18:33:27.404Z,0.80
2022-08-30T18:35:55.728Z,0.80
2022-08-30T18:38:23.968Z,0.98
2022-08-30T18:40:52.600Z,2.53
2022-08-30T18:43:24.549Z,1.70
2022-08-30T18:45:57.049Z,1.45
2022-08-30T18:48:23.797Z,1.17
2022-08-30T18:50:54.039Z,0.73
2022-08-30T18:53:28.509Z,0.70
2022-08-30T18:55:56.986Z,0.90
2022-08-30T18:58:23.731Z,0.80
2022-08-30T19:00:50.998Z,0.80
2022-08-30T19:03:18.940Z,0.70
2022-08-30T19:05:46.019Z,1.27
2022-08-30T19:08:13.924Z,0.80
2022-08-30T19:10:41.222Z,0.82
2022-08-30T19:13:08.261Z,0.98
2022-08-30T19:15:35.545Z,1.05
2022-08-30T19:18:12.859Z,0.70
2022-08-30T19:20:44.205Z,1.00
2022-08-30T19:23:11.002Z,1.00
2022-08-30T19:25:40.100Z,1.00
2022-08-30T19:28:09.014Z,1.08
2022-08-30T19:30:37.145Z,0.90
2022-08-30T19:33:05.713Z,0.82
2022-08-30T19:35:33.161Z,0.70
2022-08-30T19:38:00.921Z,0.80
2022-08-30T19:40:29.226Z,1.08
2022-08-30T19:42:56.686Z,1.00
2022-08-30T19:45:24.546Z,0.80
2022-08-30T19:47:53.083Z,0.90
2022-08-30T19:50:21.210Z,0.90
2022-08-30T19:55:36.993Z,0.88
2022-08-30T19:58:04.466Z,0.73
2022-08-30T20:00:31.662Z,0.70
2022-08-30T20:02:59.899Z,1.05
2022-08-30T20:05:28.284Z,0.80
2022-08-30T20:07:54.957Z,0.88
2022-08-30T20:10:26.003Z,0.80
2022-08-30T20:12:52.872Z,1.13
2022-08-30T20:15:19.870Z,0.73
2022-08-30T20:18:03.451Z,0.95
2022-08-30T20:20:33.509Z,1.00
2022-08-30T20:23:03.079Z,0.95
2022-08-30T20:25:30.650Z,1.02
2022-08-30T20:27:57.330Z,0.85
2022-08-30T20:30:23.999Z,0.80
2022-08-30T20:32:52.469Z,0.73
2022-08-30T20:35:19.662Z,0.98
2022-08-30T20:37:46.760Z,0.82
2022-08-30T20:40:15.985Z,0.90
2022-08-30T20:42:45.274Z,0.95
2022-08-30T20:45:15.405Z,1.05
2022-08-30T20:47:43.186Z,1.30
2022-08-30T20:50:13.621Z,0.93
2022-08-30T20:52:42.749Z,1.10
2022-08-30T20:55:10.969Z,1.10
2022-08-30T20:57:38.413Z,1.00
2022-08-30T21:00:09.603Z,1.08
2022-08-30T21:02:36.870Z,1.20
2022-08-30T21:05:11.001Z,0.80
2022-08-30T21:07:37.634Z,1.17
2022-08-30T21:10:05.045Z,1.20
2022-08-30T21:12:32.405Z,1.13
2022-08-30T21:14:59.184Z,1.10
2022-08-30T21:17:27.168Z,0.80
2022-08-30T21:19:55.171Z,1.00
2022-08-30T21:22:22.400Z,1.20
2022-08-30T21:24:49.082Z,1.15
2022-08-30T21:27:15.805Z,1.02
2022-08-30T21:29:42.494Z,0.95
2022-08-30T21:32:09.699Z,0.90
2022-08-30T21:34:55.544Z,0.90
2022-08-30T21:37:22.583Z,1.05
2022-08-30T21:39:49.388Z,0.93
2022-08-30T21:42:16.565Z,1.02
2022-08-30T21:44:43.313Z,0.85
2022-08-30T21:47:10.507Z,0.82
2022-08-30T21:49:37.195Z,0.80
2022-08-30T21:52:04.015Z,0.90
2022-08-30T21:54:31.507Z,0.70
2022-08-30T21:57:00.677Z,0.98
2022-08-30T21:59:28.552Z,0.73
2022-08-30T22:01:56.541Z,1.00
2022-08-30T22:04:26.414Z,0.80
2022-08-30T22:06:53.672Z,0.70
2022-08-30T22:09:24.197Z,0.75
2022-08-30T22:11:51.302Z,0.90
2022-08-30T22:14:19.479Z,0.80
2022-08-30T22:16:46.474Z,0.85
2022-08-30T22:19:13.277Z,0.82
2022-08-30T22:21:42.003Z,0.70
2022-08-30T22:24:09.749Z,0.88
2022-08-30T22:26:36.953Z,0.90
2022-08-30T22:29:05.157Z,0.52
2022-08-30T22:31:32.044Z,0.57
2022-08-30T22:33:59.510Z,0.70
2022-08-30T22:36:32.441Z,1.00
2022-08-30T22:39:01.365Z,1.00
2022-08-30T22:41:31.159Z,0.77
2022-08-30T22:43:58.582Z,0.60
2022-08-30T22:46:33.825Z,0.80
2022-08-30T22:49:06.062Z,0.90
2022-08-30T22:51:33.648Z,0.85
2022-08-30T22:54:01.416Z,0.70
2022-08-30T22:56:28.578Z,0.70
2022-08-30T22:58:55.807Z,0.70
2022-08-30T23:01:34.594Z,0.95
2022-08-30T23:04:01.749Z,0.60
2022-08-30T23:06:29.306Z,0.63
2022-08-30T23:08:56.280Z,0.82
2022-08-30T23:11:24.366Z,0.80
2022-08-30T23:13:52.142Z,0.80
2022-08-30T23:16:19.312Z,0.65
2022-08-30T23:18:46.272Z,0.75
2022-08-30T23:21:19.778Z,0.73
2022-08-30T23:24:05.513Z,0.60
2022-08-30T23:26:51.091Z,0.70
2022-08-30T23:29:36.503Z,0.75
2022-08-30T23:32:22.155Z,0.82
2022-08-30T23:35:07.791Z,0.68
2022-08-30T23:37:53.386Z,0.90
2022-08-30T23:40:40.937Z,0.90
2022-08-30T23:43:27.111Z,0.80
2022-08-30T23:46:19.257Z,0.85
2022-08-30T23:49:05.940Z,0.70
2022-08-30T23:51:52.261Z,0.63
2022-08-30T23:54:37.833Z,0.80
2022-08-30T23:57:23.645Z,0.70
